Time;durP1;ratioP1;P1;durP2;ratioP2;P2;SDS_P1;SDS_P2;PMS_P1;PMS_P2;Temp;Humidity;BMP_temperature;BMP_pressure;BME280_temperature;BME280_humidity;BME280_pressure;Samples;Min_cycle;Max_cycle;Signal;HPM_P1;HPM_P2
2022/08/10 00:01:02;;;;;;;2.97;2.25;;;;;;;18.55;66.82;102588.03;5036176;28;20025;-71
2022/08/10 00:03:28;;;;;;;3.33;2.60;;;;;;;18.44;67.55;102588.31;5045445;28;20037;-71
2022/08/10 00:05:55;;;;;;;3.35;2.50;;;;;;;18.49;66.98;102586.44;5045927;28;20052;-72
2022/08/10 00:08:23;;;;;;;4.25;2.55;;;;;;;18.45;67.16;102590.94;5030154;28;20025;-71
2022/08/10 00:10:49;;;;;;;6.43;2.42;;;;;;;18.41;67.45;102588.41;5034043;28;20040;-71
2022/08/10 00:13:14;;;;;;;5.47;2.70;;;;;;;18.30;67.62;102585.22;5046814;28;20033;-71
2022/08/10 00:15:39;;;;;;;3.22;2.40;;;;;;;18.24;68.26;102587.13;5044100;28;20519;-71
2022/08/10 00:18:05;;;;;;;3.63;2.40;;;;;;;18.23;67.80;102585.38;5036698;28;20040;-71
2022/08/10 00:20:30;;;;;;;3.60;2.60;;;;;;;18.23;68.07;102576.63;5041502;28;20036;-71
2022/08/10 00:22:55;;;;;;;4.47;2.28;;;;;;;18.24;68.52;102581.84;5037197;28;20030;-71
2022/08/10 00:25:21;;;;;;;4.05;2.40;;;;;;;18.21;68.05;102576.66;5037018;28;20385;-71
2022/08/10 00:27:46;;;;;;;3.53;2.20;;;;;;;18.14;68.42;102579.50;5045735;28;20112;-71
2022/08/10 00:30:11;;;;;;;5.05;2.60;;;;;;;18.13;68.69;102567.22;5032851;28;20033;-71
2022/08/10 00:32:37;;;;;;;5.32;2.40;;;;;;;18.13;68.55;102569.88;5046819;28;20091;-71
2022/08/10 00:35:02;;;;;;;5.13;2.28;;;;;;;18.15;68.70;102565.41;5043781;28;20033;-71
2022/08/10 00:37:28;;;;;;;4.88;2.67;;;;;;;18.09;68.49;102565.59;5034169;28;20033;-71
2022/08/10 00:39:53;;;;;;;3.47;2.28;;;;;;;18.14;68.52;102563.66;5040306;28;20025;-71
2022/08/10 00:42:18;;;;;;;3.67;2.40;;;;;;;18.03;69.05;102561.34;5041029;28;20080;-72
2022/08/10 00:44:47;;;;;;;2.90;2.55;;;;;;;18.00;69.66;102564.91;5047088;28;20025;-71
2022/08/10 00:47:13;;;;;;;2.58;2.38;;;;;;;17.98;69.59;102568.50;5036400;28;20020;-71
2022/08/10 00:49:40;;;;;;;2.67;2.47;;;;;;;17.91;69.56;102561.66;5029891;28;20376;-71
2022/08/10 00:52:06;;;;;;;3.38;2.70;;;;;;;17.83;69.67;102561.00;5034289;28;20089;-71
2022/08/10 00:54:36;;;;;;;5.72;2.55;;;;;;;17.80;69.51;102561.94;5031860;28;20116;-71
2022/08/10 00:57:03;;;;;;;6.57;2.58;;;;;;;17.77;69.60;102560.25;5030486;28;20025;-71
2022/08/10 00:59:30;;;;;;;4.63;2.65;;;;;;;17.73;70.05;102565.63;5037483;28;20167;-71
2022/08/10 01:01:55;;;;;;;4.78;2.70;;;;;;;17.74;70.41;102562.06;5038777;28;20033;-71
2022/08/10 01:04:20;;;;;;;5.90;2.78;;;;;;;17.69;70.21;102556.03;5042709;28;20395;-71
2022/08/10 01:06:51;;;;;;;4.15;2.70;;;;;;;17.61;70.46;102558.03;5036017;28;20033;-71
2022/08/10 01:09:29;;;;;;;3.75;2.60;;;;;;;17.62;70.38;102551.84;5043744;28;20029;-71
2022/08/10 01:12:01;;;;;;;4.30;2.70;;;;;;;17.65;71.15;102554.41;5036469;28;20030;-71
2022/08/10 01:14:40;;;;;;;4.05;2.85;;;;;;;17.62;70.47;102562.38;5035153;28;20045;-71
2022/08/10 01:17:13;;;;;;;5.75;2.65;;;;;;;17.60;70.89;102554.53;5044307;28;20036;-71
2022/08/10 01:19:51;;;;;;;3.72;3.05;;;;;;;17.65;70.37;102549.97;5048132;28;20484;-71
2022/08/10 01:22:47;;;;;;;3.53;2.70;;;;;;;17.62;69.92;102539.50;5031457;28;20036;-72
2022/08/10 01:25:22;;;;;;;3.15;2.80;;;;;;;17.58;70.41;102545.78;5027001;28;20033;-71
2022/08/10 01:28:14;;;;;;;4.07;2.47;;;;;;;17.51;70.24;102552.13;5032799;28;20060;-71
2022/08/10 01:30:41;;;;;;;4.88;3.08;;;;;;;17.46;71.58;102544.34;5038081;28;20488;-71
2022/08/10 01:33:28;;;;;;;2.70;2.45;;;;;;;17.42;71.38;102552.34;5042124;28;20037;-71
2022/08/10 01:36:11;;;;;;;4.88;3.15;;;;;;;17.49;70.97;102543.38;5047654;28;20440;-71
2022/08/10 01:38:41;;;;;;;5.40;2.88;;;;;;;17.36;72.00;102549.84;5027672;28;20868;-71
2022/08/10 01:41:12;;;;;;;4.55;2.50;;;;;;;17.29;71.98;102549.13;5037424;28;20036;-71
2022/08/10 01:43:42;;;;;;;5.07;2.80;;;;;;;17.18;72.38;102541.50;5026310;28;20045;-71
2022/08/10 01:46:11;;;;;;;5.10;3.25;;;;;;;17.18;73.19;102544.13;5029509;28;20033;-71
2022/08/10 01:48:42;;;;;;;4.05;3.08;;;;;;;17.17;72.49;102542.41;5028492;28;20476;-71
2022/08/10 01:51:15;;;;;;;3.95;3.05;;;;;;;17.17;72.53;102538.91;5030453;28;20029;-71
2022/08/10 01:53:53;;;;;;;5.32;3.13;;;;;;;17.14;72.74;102542.50;5035704;28;20464;-71
2022/08/10 01:56:21;;;;;;;6.32;3.00;;;;;;;17.14;72.95;102552.16;5028572;28;20111;-71
2022/08/10 01:59:01;;;;;;;3.92;3.00;;;;;;;17.07;72.22;102536.50;5030766;28;20025;-71
2022/08/10 02:01:32;;;;;;;3.65;3.10;;;;;;;17.08;73.18;102553.16;5031145;28;20033;-71
2022/08/10 02:04:02;;;;;;;5.07;2.90;;;;;;;17.09;73.38;102550.47;5029635;28;20026;-71
2022/08/10 02:06:30;;;;;;;3.25;2.95;;;;;;;17.00;73.80;102545.47;5034465;28;20034;-71
2022/08/10 02:08:58;;;;;;;7.35;3.10;;;;;;;16.98;73.77;102547.25;5031388;28;20489;-71
2022/08/10 02:11:27;;;;;;;4.40;2.95;;;;;;;17.00;73.98;102545.47;5029684;28;20112;-71
2022/08/10 02:13:54;;;;;;;4.45;3.33;;;;;;;16.96;73.78;102549.03;5030332;28;20442;-71
2022/08/10 02:16:21;;;;;;;3.50;3.10;;;;;;;16.91;74.25;102550.94;5029696;28;20159;-71
2022/08/10 02:18:51;;;;;;;5.80;3.22;;;;;;;16.89;74.52;102550.09;5034114;28;20045;-71
2022/08/10 02:21:17;;;;;;;5.15;2.92;;;;;;;16.87;74.32;102543.97;5028572;28;20153;-72
2022/08/10 02:23:45;;;;;;;7.90;3.70;;;;;;;16.87;74.72;102529.94;5029205;28;20021;-71
2022/08/10 02:26:11;;;;;;;5.88;3.15;;;;;;;16.85;74.68;102545.78;5030292;28;20036;-71
2022/08/10 02:28:38;;;;;;;5.75;3.33;;;;;;;16.93;74.74;102530.66;5029000;28;20032;-71
2022/08/10 02:31:08;;;;;;;6.20;3.40;;;;;;;16.91;74.35;102535.13;5028601;28;20046;-71
2022/08/10 02:33:36;;;;;;;6.13;3.70;;;;;;;16.82;74.91;102535.31;5030409;28;20056;-71
2022/08/10 02:36:05;;;;;;;4.45;3.17;;;;;;;16.82;75.33;102540.59;5027743;28;20021;-71
2022/08/10 02:38:34;;;;;;;6.78;3.53;;;;;;;16.79;75.39;102540.66;5031133;28;20060;-71
2022/08/10 02:41:10;;;;;;;7.70;3.92;;;;;;;16.75;75.16;102544.28;5029677;28;20051;-71
2022/08/10 02:43:44;;;;;;;5.72;3.40;;;;;;;16.70;75.16;102546.97;5035256;28;20053;-72
2022/08/10 02:46:15;;;;;;;4.80;3.20;;;;;;;16.73;75.44;102538.13;5032484;28;20976;-71
2022/08/10 02:48:44;;;;;;;5.10;3.10;;;;;;;16.68;75.85;102542.66;5039096;28;20024;-71
2022/08/10 02:51:30;;;;;;;3.97;3.08;;;;;;;16.59;74.79;102531.41;5028300;28;20112;-71
2022/08/10 02:54:02;;;;;;;4.53;3.10;;;;;;;16.61;75.58;102536.63;5030351;28;20076;-71
2022/08/10 02:56:49;;;;;;;5.05;3.20;;;;;;;16.58;75.32;102531.44;5029008;28;20099;-71
2022/08/10 02:59:21;;;;;;;6.00;3.45;;;;;;;16.48;76.12;102524.63;5028699;28;20548;-71
2022/08/10 03:01:49;;;;;;;4.80;3.58;;;;;;;16.44;76.50;102523.81;5023910;28;20120;-71
2022/08/10 03:04:25;;;;;;;6.07;3.30;;;;;;;16.43;76.36;102532.63;5029866;28;20108;-71
2022/08/10 03:06:57;;;;;;;6.75;3.63;;;;;;;16.36;77.01;102523.13;5019040;28;20025;-71
2022/08/10 03:09:25;;;;;;;5.57;3.53;;;;;;;16.35;77.36;102524.03;5029951;28;20037;-71
2022/08/10 03:11:52;;;;;;;7.40;3.75;;;;;;;16.26;77.63;102530.34;5029008;28;20034;-71
2022/08/10 03:14:19;;;;;;;8.98;3.90;;;;;;;16.18;77.69;102526.13;5029607;28;20033;-71
2022/08/10 03:16:46;;;;;;;5.70;3.90;;;;;;;16.17;78.11;102521.78;5033693;28;20033;-71
2022/08/10 03:19:13;;;;;;;7.70;4.13;;;;;;;16.12;78.32;102509.59;5032802;28;20022;-71
2022/08/10 03:21:41;;;;;;;5.20;3.85;;;;;;;16.18;78.20;102515.59;5031204;28;20037;-71
2022/08/10 03:24:08;;;;;;;6.05;3.70;;;;;;;16.25;78.02;102506.69;5034248;28;20461;-71
2022/08/10 03:26:35;;;;;;;8.43;4.30;;;;;;;16.21;78.07;102515.53;5031839;28;20032;-71
2022/08/10 03:29:03;;;;;;;8.57;3.85;;;;;;;16.20;77.98;102513.81;5034859;28;20033;-71
2022/08/10 03:31:31;;;;;;;15.15;4.32;;;;;;;16.12;78.45;102512.22;5032773;28;20026;-71
2022/08/10 03:33:57;;;;;;;6.60;4.55;;;;;;;16.06;78.58;102512.34;5031987;28;20076;-71
2022/08/10 03:36:23;;;;;;;6.68;4.05;;;;;;;16.01;78.87;102516.81;5033132;28;20465;-71
2022/08/10 03:38:52;;;;;;;6.78;4.03;;;;;;;15.94;79.30;102514.34;5036671;28;20037;-71
2022/08/10 03:41:25;;;;;;;5.40;4.43;;;;;;;15.88;78.87;102508.28;5032122;28;20056;-71
2022/08/10 03:43:51;;;;;;;;;;;;;;;15.94;77.02;102520.47;5034727;28;20136;-71
2022/08/10 03:46:20;;;;;;;5.80;4.22;;;;;;;15.87;79.43;102517.09;5031848;28;19924;-71
2022/08/10 03:48:48;;;;;;;6.78;4.65;;;;;;;15.82;79.89;102525.94;5033488;28;20124;-71
2022/08/10 03:51:15;;;;;;;6.10;4.72;;;;;;;15.78;80.17;102516.38;5032947;28;20063;-71
2022/08/10 03:53:40;;;;;;;5.88;4.93;;;;;;;15.71;80.40;102525.28;5030113;28;20040;-71
2022/08/10 03:56:07;;;;;;;6.43;4.50;;;;;;;15.73;80.99;102528.75;5030185;28;20029;-71
2022/08/10 03:58:33;;;;;;;6.32;4.45;;;;;;;15.74;80.86;102530.50;5035074;28;20040;-71
2022/08/10 04:00:58;;;;;;;7.82;5.03;;;;;;;15.77;80.45;102525.19;5032485;28;20404;-71
2022/08/10 04:03:24;;;;;;;7.43;5.00;;;;;;;15.70;80.88;102534.09;5033021;28;20061;-71
2022/08/10 04:05:49;;;;;;;8.75;4.93;;;;;;;15.74;80.70;102526.09;5032333;28;20385;-71
2022/08/10 04:08:15;;;;;;;8.88;5.03;;;;;;;15.69;81.07;102517.41;5032085;28;20021;-71
2022/08/10 04:10:40;;;;;;;8.32;5.25;;;;;;;15.57;81.18;102523.75;5033222;28;20033;-71
2022/08/10 04:13:06;;;;;;;5.72;5.05;;;;;;;15.58;81.04;102522.84;5033205;28;20035;-71
2022/08/10 04:15:31;;;;;;;7.25;5.00;;;;;;;15.54;81.42;102529.06;5032475;28;20013;-71
2022/08/10 04:17:56;;;;;;;7.97;5.18;;;;;;;15.46;81.76;102515.16;5033628;28;20025;-71
2022/08/10 04:20:30;;;;;;;5.90;5.30;;;;;;;15.57;81.65;102517.63;5032585;28;20056;-71
2022/08/10 04:23:00;;;;;;;6.28;5.43;;;;;;;15.60;82.16;102528.94;5033231;28;20044;-71
2022/08/10 04:25:26;;;;;;;6.60;4.95;;;;;;;15.64;81.86;102532.38;5033008;28;20428;-71
2022/08/10 04:27:52;;;;;;;5.80;5.20;;;;;;;15.66;81.81;102531.50;5030986;28;20022;-71
2022/08/10 04:30:18;;;;;;;6.22;5.05;;;;;;;15.62;81.89;102532.41;5031440;28;20045;-71
2022/08/10 04:32:46;;;;;;;5.80;5.07;;;;;;;15.54;81.99;102528.19;5031050;28;20032;-71
2022/08/10 04:35:12;;;;;;;9.57;5.35;;;;;;;15.55;82.30;102529.91;5032046;28;20030;-71
2022/08/10 04:37:40;;;;;;;6.93;5.22;;;;;;;15.49;82.14;102533.50;5028788;28;20370;-71
2022/08/10 04:40:05;;;;;;;8.85;5.05;;;;;;;15.50;82.51;102530.00;5032487;28;20037;-71
2022/08/10 04:42:31;;;;;;;5.95;5.13;;;;;;;15.51;82.67;102526.47;5028875;28;20053;-71
2022/08/10 04:44:56;;;;;;;7.88;5.28;;;;;;;15.54;82.71;102529.06;5032757;28;20026;-71
2022/08/10 04:47:22;;;;;;;6.75;5.38;;;;;;;15.46;82.80;102526.53;5030541;28;20045;-71
2022/08/10 04:49:47;;;;;;;7.32;5.55;;;;;;;15.59;82.68;102532.44;5029971;28;20075;-71
2022/08/10 04:52:13;;;;;;;9.10;5.18;;;;;;;15.59;82.92;102529.81;5031456;28;20033;-71
2022/08/10 04:54:39;;;;;;;9.23;6.10;;;;;;;15.58;82.67;102525.47;5030060;28;20071;-71
2022/08/10 04:57:04;;;;;;;9.05;5.85;;;;;;;15.58;82.79;102524.59;5033622;28;20033;-71
2022/08/10 04:59:30;;;;;;;8.02;5.93;;;;;;;15.56;82.98;102524.63;5030707;28;20478;-71
2022/08/10 05:01:55;;;;;;;7.35;5.82;;;;;;;15.60;82.89;102520.19;5032087;28;20037;-71
2022/08/10 05:04:20;;;;;;;7.50;6.00;;;;;;;15.70;82.66;102528.81;5029986;28;20492;-70
2022/08/10 05:06:46;;;;;;;6.82;6.13;;;;;;;15.75;82.78;102526.97;5030572;28;20473;-71
2022/08/10 05:09:11;;;;;;;8.40;5.85;;;;;;;15.78;82.62;102522.50;5031069;28;20060;-71
2022/08/10 05:11:36;;;;;;;8.32;5.80;;;;;;;15.77;82.41;102514.66;5030607;28;20029;-71
2022/08/10 05:14:01;;;;;;;6.65;5.95;;;;;;;15.85;82.37;102510.97;5032099;28;20056;-71
2022/08/10 05:16:27;;;;;;;7.43;6.57;;;;;;;15.91;82.09;102523.16;5031458;28;20401;-71
2022/08/10 05:18:52;;;;;;;10.65;6.20;;;;;;;15.95;82.19;102519.56;5032079;28;20017;-71
2022/08/10 05:21:17;;;;;;;7.82;6.60;;;;;;;15.96;82.33;102516.06;5029574;28;20481;-71
2022/08/10 05:23:43;;;;;;;7.70;6.47;;;;;;;15.99;82.06;102518.63;5030965;28;20025;-71
2022/08/10 05:26:08;;;;;;;8.70;6.35;;;;;;;15.94;82.15;102523.09;5030449;28;20044;-71
2022/08/10 05:28:33;;;;;;;7.93;6.10;;;;;;;15.96;82.31;102523.94;5028588;28;20354;-71
2022/08/10 05:30:58;;;;;;;7.25;6.32;;;;;;;15.97;82.34;102517.78;5029980;28;20044;-71
2022/08/10 05:33:24;;;;;;;7.57;6.68;;;;;;;16.03;82.47;102533.44;5028876;28;20049;-71
2022/08/10 05:35:50;;;;;;;7.07;6.18;;;;;;;15.98;82.39;102521.25;5030451;28;20025;-71
2022/08/10 05:38:16;;;;;;;7.93;6.55;;;;;;;16.08;81.99;102530.72;5029492;28;20034;-71
2022/08/10 05:40:43;;;;;;;8.40;6.65;;;;;;;16.15;82.04;102533.22;5030745;28;20535;-71
2022/08/10 05:43:09;;;;;;;10.55;6.28;;;;;;;16.18;81.83;102540.16;5029784;28;20045;-71
2022/08/10 05:45:34;;;;;;;8.30;6.95;;;;;;;16.24;81.85;102531.28;5030121;28;20106;-71
2022/08/10 05:48:00;;;;;;;10.10;6.90;;;;;;;16.25;81.46;102522.47;5030987;28;20032;-71
2022/08/10 05:50:27;;;;;;;7.82;6.38;;;;;;;16.39;81.11;102531.84;5033088;28;20039;-71
2022/08/10 05:52:53;;;;;;;8.60;6.32;;;;;;;16.46;81.05;102531.72;5030559;28;20062;-71
2022/08/10 05:55:18;;;;;;;7.68;6.68;;;;;;;16.49;81.04;102532.50;5028152;28;20036;-71
2022/08/10 05:57:45;;;;;;;10.43;7.60;;;;;;;16.48;80.89;102529.88;5030452;28;20014;-71
2022/08/10 06:00:13;;;;;;;8.75;7.43;;;;;;;16.52;80.95;102545.59;5026044;28;20048;-71
2022/08/10 06:02:48;;;;;;;10.93;7.00;;;;;;;16.58;80.30;102544.63;5030549;28;20030;-71
2022/08/10 06:05:26;;;;;;;9.20;7.28;;;;;;;16.62;80.18;102538.38;5031837;28;20038;-71
2022/08/10 06:08:07;;;;;;;9.15;6.60;;;;;;;16.72;79.81;102534.63;5026859;28;20511;-71
2022/08/10 06:10:36;;;;;;;10.18;7.15;;;;;;;16.82;80.16;102541.47;5030824;28;20156;-71
2022/08/10 06:15:49;;;;;;;8.32;7.38;;;;;;;16.96;78.97;102538.50;5029488;28;20472;-71
2022/08/10 06:18:15;;;;;;;13.23;6.97;;;;;;;16.99;79.00;102535.78;5029019;28;20014;-71
2022/08/10 06:20:42;;;;;;;9.30;7.55;;;;;;;17.03;79.35;102540.09;5029756;28;20053;-71
2022/08/10 06:23:08;;;;;;;8.30;7.22;;;;;;;17.13;78.70;102546.00;5030750;28;20485;-71
2022/08/10 06:25:34;;;;;;;7.88;6.70;;;;;;;17.16;78.79;102551.19;5030132;28;20040;-71
2022/08/10 06:28:00;;;;;;;9.98;7.60;;;;;;;17.24;78.47;102546.63;5031046;28;20033;-71
2022/08/10 06:30:27;;;;;;;9.88;7.32;;;;;;;17.30;79.03;102540.34;5029331;28;20057;-71
2022/08/10 06:32:55;;;;;;;9.57;7.13;;;;;;;17.37;78.38;102539.28;5031634;28;20093;-71
2022/08/10 06:35:23;;;;;;;11.25;6.45;;;;;;;17.43;78.58;102543.53;5025602;28;20108;-72
2022/08/10 06:37:50;;;;;;;10.00;6.53;;;;;;;17.52;77.90;102544.16;5030466;28;20036;-75
2022/08/10 06:40:15;;;;;;;8.68;6.38;;;;;;;17.62;77.83;102541.28;5031079;28;20051;-75
2022/08/10 06:42:46;;;;;;;7.90;6.28;;;;;;;17.69;76.86;102535.84;5029303;28;20061;-75
2022/08/10 06:45:17;;;;;;;10.40;7.20;;;;;;;17.77;76.16;102523.31;5031640;28;20029;-75
2022/08/10 06:47:48;;;;;;;8.75;6.80;;;;;;;17.93;75.92;102530.81;5031542;28;20029;-74
2022/08/10 06:50:34;;;;;;;17.77;6.72;;;;;;;17.98;75.71;102528.91;5028727;28;20029;-74
2022/08/10 06:53:01;;;;;;;9.07;6.30;;;;;;;18.07;75.20;102538.34;5032685;28;20456;-74
2022/08/10 06:55:28;;;;;;;7.30;5.68;;;;;;;18.18;74.83;102546.81;5034021;28;20037;-74
2022/08/10 06:57:55;;;;;;;9.65;5.65;;;;;;;18.23;74.13;102531.75;5036559;28;20108;-75
2022/08/10 07:00:24;;;;;;;10.07;6.07;;;;;;;18.27;74.37;102532.50;5033516;28;20025;-74
2022/08/10 07:02:55;;;;;;;14.30;5.88;;;;;;;18.38;74.47;102535.72;5029304;28;20532;-75
2022/08/10 07:05:23;;;;;;;10.50;6.00;;;;;;;18.47;73.19;102546.88;5032505;28;20722;-74
2022/08/10 07:07:55;;;;;;;9.43;5.72;;;;;;;18.51;73.33;102542.38;5033010;28;20029;-71
2022/08/10 07:10:24;;;;;;;7.80;5.38;;;;;;;18.58;73.30;102546.56;5020591;28;20022;-72
2022/08/10 07:12:51;;;;;;;8.88;5.30;;;;;;;18.66;72.04;102539.25;5035061;28;20022;-71
2022/08/10 07:15:18;;;;;;;5.68;4.82;;;;;;;18.74;71.95;102544.34;5034113;28;20095;-72
2022/08/10 07:17:45;;;;;;;10.82;5.43;;;;;;;18.82;71.04;102547.59;5034443;28;20021;-71
2022/08/10 07:20:15;;;;;;;10.82;5.93;;;;;;;18.88;70.99;102551.84;5034928;28;20025;-72
2022/08/10 07:22:42;;;;;;;5.90;5.35;;;;;;;18.95;71.44;102548.94;5035002;28;20104;-72
2022/08/10 07:25:08;;;;;;;9.15;5.60;;;;;;;18.98;70.19;102553.28;5033975;28;20049;-72
2022/08/10 07:27:34;;;;;;;6.22;5.60;;;;;;;18.99;70.31;102549.72;5034245;28;20029;-72
2022/08/10 07:30:01;;;;;;;6.15;5.03;;;;;;;19.05;70.42;102556.59;5034758;28;20025;-72
2022/08/10 07:32:27;;;;;;;8.00;5.32;;;;;;;19.14;69.85;102545.72;5033276;28;20029;-72
2022/08/10 07:34:54;;;;;;;6.63;5.25;;;;;;;19.27;69.25;102552.34;5034677;28;20026;-72
2022/08/10 07:37:22;;;;;;;8.65;5.93;;;;;;;19.33;68.41;102549.50;5033888;28;20028;-72
2022/08/10 07:39:50;;;;;;;6.65;5.20;;;;;;;19.43;68.45;102558.00;5033912;28;20021;-72
2022/08/10 07:42:18;;;;;;;8.38;5.75;;;;;;;19.47;67.90;102550.81;5033501;28;20048;-72
2022/08/10 07:44:45;;;;;;;11.10;6.20;;;;;;;19.53;67.42;102550.63;5033954;28;20079;-72
2022/08/10 07:47:14;;;;;;;6.05;5.45;;;;;;;19.56;67.39;102551.38;5034477;28;20026;-72
2022/08/10 07:49:42;;;;;;;10.02;5.25;;;;;;;19.71;68.03;102549.13;5034315;28;20423;-72
2022/08/10 07:52:09;;;;;;;7.72;5.28;;;;;;;19.79;66.76;102542.66;5033513;28;20040;-72
2022/08/10 07:54:41;;;;;;;10.98;6.00;;;;;;;19.91;67.32;102545.78;5033446;28;20057;-72
2022/08/10 07:57:13;;;;;;;8.02;5.18;;;;;;;20.07;66.86;102546.97;5034466;28;20083;-72
2022/08/10 07:59:43;;;;;;;6.40;5.07;;;;;;;20.20;66.26;102539.44;5032897;28;20029;-72
2022/08/10 08:02:19;;;;;;;8.13;5.78;;;;;;;20.31;66.33;102550.50;5034257;28;20025;-72
2022/08/10 08:04:47;;;;;;;7.78;5.50;;;;;;;20.34;65.63;102551.25;5034067;28;20770;-71
2022/08/10 08:07:13;;;;;;;8.23;5.47;;;;;;;20.47;66.39;102553.41;5033213;28;20021;-71
2022/08/10 08:09:39;;;;;;;7.00;5.28;;;;;;;20.52;64.98;102544.41;5033166;28;20036;-71
2022/08/10 08:12:06;;;;;;;8.15;4.95;;;;;;;20.69;64.21;102556.16;5034203;28;20022;-72
2022/08/10 08:14:33;;;;;;;8.10;5.25;;;;;;;20.71;63.57;102549.88;5032623;28;20068;-72
2022/08/10 08:16:59;;;;;;;5.90;5.10;;;;;;;20.83;62.66;102547.66;5033814;28;20028;-71
2022/08/10 08:19:25;;;;;;;6.72;4.82;;;;;;;20.91;62.91;102548.22;5033268;28;20108;-71
2022/08/10 08:21:52;;;;;;;8.82;5.30;;;;;;;20.97;62.31;102551.50;5032813;28;20060;-71
2022/08/10 08:24:19;;;;;;;8.38;5.20;;;;;;;21.05;62.32;102554.69;5033246;28;20049;-71
2022/08/10 08:26:46;;;;;;;6.25;5.30;;;;;;;21.10;61.55;102546.56;5032649;28;20461;-71
2022/08/10 08:29:12;;;;;;;7.53;5.20;;;;;;;21.25;61.68;102551.25;5033718;28;20108;-72
2022/08/10 08:31:39;;;;;;;7.97;4.78;;;;;;;21.41;61.13;102553.28;5032805;28;20025;-72
2022/08/10 08:34:06;;;;;;;7.15;4.20;;;;;;;21.54;61.16;102549.16;5032684;28;20383;-72
2022/08/10 08:36:33;;;;;;;4.78;4.38;;;;;;;21.70;61.02;102547.59;5032787;28;20033;-71
2022/08/10 08:38:59;;;;;;;7.82;5.10;;;;;;;21.83;59.41;102541.75;5033249;28;20125;-71
2022/08/10 08:41:39;;;;;;;7.03;4.53;;;;;;;21.89;59.01;102542.34;5032200;28;20112;-72
2022/08/10 08:44:13;;;;;;;11.00;5.80;;;;;;;21.98;58.89;102535.78;5033100;28;20049;-71
2022/08/10 08:46:51;;;;;;;7.78;5.05;;;;;;;22.07;57.74;102545.09;5032549;28;20026;-72
2022/08/10 08:49:36;;;;;;;7.47;4.47;;;;;;;22.22;59.23;102544.44;5031873;28;20454;-72
2022/08/10 08:52:26;;;;;;;7.25;4.70;;;;;;;22.39;59.33;102538.34;5033203;28;20033;-72
2022/08/10 08:55:07;;;;;;;12.88;5.70;;;;;;;22.56;57.72;102543.75;5032110;28;20036;-72
2022/08/10 08:58:02;;;;;;;7.05;4.10;;;;;;;22.72;58.16;102543.00;5032742;28;20032;-72
2022/08/10 09:00:44;;;;;;;5.15;3.97;;;;;;;22.79;57.36;102536.47;5021325;28;20034;-72
2022/08/10 09:03:25;;;;;;;5.35;4.45;;;;;;;22.88;57.07;102546.66;5030028;28;20026;-72
2022/08/10 09:06:06;;;;;;;10.93;6.00;;;;;;;22.97;56.20;102546.25;5031760;28;20052;-72
2022/08/10 09:08:49;;;;;;;8.93;5.97;;;;;;;23.03;55.61;102542.44;5032288;28;20074;-72
2022/08/10 09:11:17;;;;;;;7.05;5.00;;;;;;;23.14;55.92;102530.31;5031669;28;20540;-72
2022/08/10 09:14:07;;;;;;;7.07;4.50;;;;;;;23.25;55.33;102526.25;5032114;28;20033;-72
2022/08/10 09:16:58;;;;;;;8.45;4.50;;;;;;;23.38;54.44;102519.41;5031545;28;20021;-72
2022/08/10 09:19:40;;;;;;;8.88;4.68;;;;;;;23.59;55.21;102520.06;5032207;28;20041;-72
2022/08/10 09:22:20;;;;;;;6.82;4.40;;;;;;;23.80;53.68;102518.09;5032398;28;20092;-72
2022/08/10 09:25:12;;;;;;;6.25;4.40;;;;;;;23.91;53.91;102517.56;5032120;28;20087;-72
2022/08/10 09:27:55;;;;;;;7.93;4.50;;;;;;;24.05;53.65;102515.88;5021379;28;20056;-72
2022/08/10 09:30:48;;;;;;;9.68;5.30;;;;;;;24.17;53.55;102516.16;5031131;28;20340;-72
2022/08/10 09:33:19;;;;;;;7.47;3.85;;;;;;;24.27;51.66;102506.72;5031980;28;20108;-72
2022/08/10 09:36:00;;;;;;;7.35;4.85;;;;;;;24.28;51.78;102503.94;5030864;28;20026;-72
2022/08/10 09:38:56;;;;;;;7.28;4.60;;;;;;;24.29;52.24;102504.81;5031041;28;20061;-72
2022/08/10 09:41:29;;;;;;;6.10;4.15;;;;;;;24.28;51.05;102498.63;5022042;28;20029;-72
2022/08/10 09:44:06;;;;;;;;;;;;;;;24.36;52.15;102502.66;5029259;28;20041;-71
2022/08/10 09:47:03;;;;;;;5.82;3.30;;;;;;;24.50;50.13;102505.47;5029264;28;19971;-72
2022/08/10 09:50:04;;;;;;;5.07;3.83;;;;;;;24.58;50.36;102500.56;5030231;28;20021;-71
2022/08/10 09:52:48;;;;;;;5.25;3.97;;;;;;;24.70;49.48;102489.19;5032064;28;20088;-72
2022/08/10 09:55:26;;;;;;;8.45;4.20;;;;;;;24.83;48.39;102489.34;5020737;28;20033;-71
2022/08/10 09:58:20;;;;;;;8.18;3.80;;;;;;;25.15;49.49;102498.19;5032158;28;20033;-72
2022/08/10 10:01:23;;;;;;;7.10;4.05;;;;;;;25.37;48.41;102488.88;5032178;28;20029;-71
2022/08/10 10:04:08;;;;;;;9.00;3.75;;;;;;;25.56;47.68;102488.63;5028734;28;20125;-71
2022/08/10 10:07:00;;;;;;;4.75;3.53;;;;;;;25.72;46.18;102486.75;5030320;28;20030;-71
2022/08/10 10:09:56;;;;;;;4.90;3.42;;;;;;;25.90;46.76;102482.13;5031450;28;20034;-72
2022/08/10 10:12:40;;;;;;;9.25;3.78;;;;;;;26.08;45.54;102485.44;5020051;28;20457;-72
2022/08/10 10:15:50;;;;;;;5.45;3.60;;;;;;;26.22;45.09;102469.34;5031784;28;20108;-72
2022/08/10 10:18:23;;;;;;;7.15;3.70;;;;;;;26.26;43.21;102470.91;4991661;28;20475;-72
2022/08/10 10:21:06;;;;;;;10.50;4.10;;;;;;;26.33;43.23;102464.19;5023135;28;20067;-71
2022/08/10 10:23:56;;;;;;;5.32;3.50;;;;;;;26.34;43.19;102471.25;5027750;28;20291;-71
2022/08/10 10:26:42;;;;;;;7.03;3.50;;;;;;;26.44;44.08;102468.84;5033528;28;20083;-72
2022/08/10 10:29:23;;;;;;;7.05;3.42;;;;;;;26.73;43.10;102453.59;5033597;28;20036;-71
2022/08/10 10:32:00;;;;;;;4.65;3.58;;;;;;;26.73;41.67;102461.59;5035037;28;20029;-72
2022/08/10 10:34:36;;;;;;;6.82;3.83;;;;;;;26.72;40.90;102454.56;5034401;28;20482;-72
2022/08/10 10:37:05;;;;;;;6.35;3.30;;;;;;;26.69;40.36;102449.41;5034897;28;20036;-72
2022/08/10 10:39:33;;;;;;;7.28;3.30;;;;;;;26.88;40.76;102451.72;5034151;28;20037;-72
2022/08/10 10:42:04;;;;;;;8.20;3.45;;;;;;;27.02;39.96;102450.78;5033036;28;20025;-72
2022/08/10 10:44:40;;;;;;;11.52;3.35;;;;;;;27.23;39.70;102449.31;5034541;28;20045;-72
2022/08/10 10:47:20;;;;;;;3.55;3.08;;;;;;;27.37;40.97;102439.47;5034825;28;20508;-72
2022/08/10 10:50:02;;;;;;;4.43;3.47;;;;;;;27.60;39.65;102436.06;5034482;28;20029;-71
2022/08/10 10:52:54;;;;;;;4.80;3.53;;;;;;;27.80;38.93;102432.00;5032081;28;20465;-72
2022/08/10 10:55:47;;;;;;;7.10;3.50;;;;;;;27.91;39.28;102426.72;5023449;28;20040;-72
2022/08/10 10:58:45;;;;;;;11.80;3.15;;;;;;;28.20;37.78;102434.47;5035159;28;20411;-72
2022/08/10 11:01:27;;;;;;;5.72;3.40;;;;;;;28.27;37.66;102426.81;5018168;28;20041;-72
2022/08/10 11:04:19;;;;;;;5.30;3.42;;;;;;;28.43;37.60;102425.59;5034354;28;20477;-72
2022/08/10 11:07:03;;;;;;;5.68;3.50;;;;;;;28.53;36.74;102411.50;5035427;28;20036;-72
2022/08/10 11:09:42;;;;;;;7.82;3.80;;;;;;;28.48;35.26;102422.56;5033120;28;20028;-72
2022/08/10 11:12:32;;;;;;;3.72;3.20;;;;;;;28.57;37.44;102416.50;5045134;28;20030;-72
2022/08/10 11:15:05;;;;;;;6.93;3.40;;;;;;;28.52;35.16;102407.97;5035044;28;20069;-72
2022/08/10 11:17:58;;;;;;;7.28;3.65;;;;;;;28.70;35.59;102406.56;5032052;28;20029;-72
2022/08/10 11:20:33;;;;;;;5.60;3.00;;;;;;;29.02;34.55;102408.66;5033780;28;20465;-72
2022/08/10 11:23:19;;;;;;;4.32;3.58;;;;;;;29.12;35.76;102406.97;5033545;28;20381;-72
2022/08/10 11:25:54;;;;;;;7.85;3.53;;;;;;;29.08;32.80;102405.50;5033558;28;20116;-72
2022/08/10 11:28:35;;;;;;;6.53;3.63;;;;;;;29.14;33.32;102409.53;5032247;28;20037;-72
2022/08/10 11:31:10;;;;;;;5.63;3.33;;;;;;;29.35;33.54;102397.09;5032674;28;20060;-71
2022/08/10 11:34:02;;;;;;;6.60;3.80;;;;;;;29.49;32.83;102397.84;5032768;28;20477;-71
2022/08/10 11:36:40;;;;;;;5.93;3.65;;;;;;;29.71;32.35;102402.38;5033465;28;20492;-72
2022/08/10 11:39:20;;;;;;;6.50;3.78;;;;;;;29.80;33.13;102397.13;5032874;28;20068;-72
2022/08/10 11:41:51;;;;;;;8.77;3.83;;;;;;;29.81;30.24;102387.22;5027560;28;20136;-71
2022/08/10 11:44:56;;;;;;;9.27;3.75;;;;;;;29.95;33.12;102392.31;5032597;28;20037;-72
2022/08/10 11:47:30;;;;;;;7.60;3.83;;;;;;;30.00;31.75;102387.44;4996652;28;20037;-72
2022/08/10 11:50:33;;;;;;;5.55;3.80;;;;;;;30.31;33.05;102379.53;5033465;28;20025;-72